sensor_id;sensor_type;location;lat;lon;timestamp;temperature;humidity
22418;DHT22;11376;50.932;4.442;2022-09-11T00:00:39;17.90;99.90
22418;DHT22;11376;50.932;4.442;2022-09-11T00:03:06;18.00;99.90
22418;DHT22;11376;50.932;4.442;2022-09-11T00:05:35;18.10;99.90
22418;DHT22;11376;50.932;4.442;2022-09-11T00:08:02;18.10;99.90
22418;DHT22;11376;50.932;4.442;2022-09-11T00:10:28;18.10;99.90
22418;DHT22;11376;50.932;4.442;2022-09-11T00:12:53;18.10;99.90
22418;DHT22;11376;50.932;4.442;2022-09-11T00:15:19;18.00;99.90
22418;DHT22;11376;50.932;4.442;2022-09-11T00:17:45;18.00;99.90
22418;DHT22;11376;50.932;4.442;2022-09-11T00:20:11;18.00;99.90
22418;DHT22;11376;50.932;4.442;2022-09-11T00:22:36;18.00;99.90
22418;DHT22;11376;50.932;4.442;2022-09-11T00:25:02;18.00;99.90
22418;DHT22;11376;50.932;4.442;2022-09-11T00:27:28;17.90;99.90
22418;DHT22;11376;50.932;4.442;2022-09-11T00:29:53;17.90;99.90
22418;DHT22;11376;50.932;4.442;2022-09-11T00:32:19;17.90;99.90
22418;DHT22;11376;50.932;4.442;2022-09-11T00:34:45;17.90;99.90
22418;DHT22;11376;50.932;4.442;2022-09-11T00:37:11;17.90;99.90
22418;DHT22;11376;50.932;4.442;2022-09-11T00:39:36;17.80;99.90
22418;DHT22;11376;50.932;4.442;2022-09-11T00:42:03;17.80;99.90
22418;DHT22;11376;50.932;4.442;2022-09-11T00:46:58;17.70;99.90
22418;DHT22;11376;50.932;4.442;2022-09-11T00:49:34;17.70;99.90
22418;DHT22;11376;50.932;4.442;2022-09-11T00:52:25;17.60;99.90
22418;DHT22;11376;50.932;4.442;2022-09-11T00:57:23;17.50;99.90
22418;DHT22;11376;50.932;4.442;2022-09-11T00:59:53;17.50;99.90
22418;DHT22;11376;50.932;4.442;2022-09-11T01:02:21;17.40;99.90
22418;DHT22;11376;50.932;4.442;2022-09-11T01:04:47;17.40;99.90
22418;DHT22;11376;50.932;4.442;2022-09-11T01:07:16;17.40;99.90
22418;DHT22;11376;50.932;4.442;2022-09-11T01:09:42;17.40;99.90
22418;DHT22;11376;50.932;4.442;2022-09-11T01:12:44;17.30;99.90
22418;DHT22;11376;50.932;4.442;2022-09-11T01:15:13;17.30;99.90
22418;DHT22;11376;50.932;4.442;2022-09-11T01:18:08;17.20;99.90
22418;DHT22;11376;50.932;4.442;2022-09-11T01:20:51;17.20;99.90
22418;DHT22;11376;50.932;4.442;2022-09-11T01:26:36;17.10;99.90
22418;DHT22;11376;50.932;4.442;2022-09-11T01:29:08;17.10;99.90
22418;DHT22;11376;50.932;4.442;2022-09-11T01:31:43;17.00;99.90
22418;DHT22;11376;50.932;4.442;2022-09-11T01:34:24;16.90;99.90
22418;DHT22;11376;50.932;4.442;2022-09-11T01:37:00;16.90;99.90
22418;DHT22;11376;50.932;4.442;2022-09-11T01:39:34;16.90;99.90
22418;DHT22;11376;50.932;4.442;2022-09-11T01:42:04;16.80;99.90
22418;DHT22;11376;50.932;4.442;2022-09-11T01:44:52;16.80;99.90
22418;DHT22;11376;50.932;4.442;2022-09-11T01:47:19;16.70;99.90
22418;DHT22;11376;50.932;4.442;2022-09-11T01:52:30;16.70;99.90
22418;DHT22;11376;50.932;4.442;2022-09-11T01:55:00;16.60;99.90
22418;DHT22;11376;50.932;4.442;2022-09-11T01:57:38;16.60;99.90
22418;DHT22;11376;50.932;4.442;2022-09-11T02:00:08;16.60;99.90
22418;DHT22;11376;50.932;4.442;2022-09-11T02:02:40;16.50;99.90
22418;DHT22;11376;50.932;4.442;2022-09-11T02:05:16;16.50;99.90
22418;DHT22;11376;50.932;4.442;2022-09-11T02:07:51;16.50;99.90
22418;DHT22;11376;50.932;4.442;2022-09-11T02:10:22;16.50;99.90
22418;DHT22;11376;50.932;4.442;2022-09-11T02:13:05;16.60;99.90
22418;DHT22;11376;50.932;4.442;2022-09-11T02:15:39;16.50;99.90
22418;DHT22;11376;50.932;4.442;2022-09-11T02:18:21;16.50;99.90
22418;DHT22;11376;50.932;4.442;2022-09-11T02:20:49;16.50;99.90
22418;DHT22;11376;50.932;4.442;2022-09-11T02:23:17;16.60;99.90
22418;DHT22;11376;50.932;4.442;2022-09-11T02:25:42;16.60;99.90
22418;DHT22;11376;50.932;4.442;2022-09-11T02:28:08;16.50;99.90
22418;DHT22;11376;50.932;4.442;2022-09-11T02:30:35;16.50;99.90
22418;DHT22;11376;50.932;4.442;2022-09-11T02:33:02;16.50;99.90
22418;DHT22;11376;50.932;4.442;2022-09-11T02:35:32;16.50;99.90
22418;DHT22;11376;50.932;4.442;2022-09-11T02:38:12;16.40;99.90
22418;DHT22;11376;50.932;4.442;2022-09-11T02:40:58;16.40;99.90
22418;DHT22;11376;50.932;4.442;2022-09-11T02:46:37;16.30;99.90
22418;DHT22;11376;50.932;4.442;2022-09-11T02:49:20;16.30;99.90
22418;DHT22;11376;50.932;4.442;2022-09-11T02:57:35;16.30;99.90
22418;DHT22;11376;50.932;4.442;2022-09-11T03:00:05;16.20;99.90
22418;DHT22;11376;50.932;4.442;2022-09-11T03:02:33;16.20;99.90
22418;DHT22;11376;50.932;4.442;2022-09-11T03:05:02;16.20;99.90
22418;DHT22;11376;50.932;4.442;2022-09-11T03:07:28;16.20;99.90
22418;DHT22;11376;50.932;4.442;2022-09-11T03:09:54;16.20;99.90
22418;DHT22;11376;50.932;4.442;2022-09-11T03:12:19;16.10;99.90
22418;DHT22;11376;50.932;4.442;2022-09-11T03:14:45;16.10;99.90
22418;DHT22;11376;50.932;4.442;2022-09-11T03:17:10;16.10;99.90
22418;DHT22;11376;50.932;4.442;2022-09-11T03:19:37;16.10;99.90
22418;DHT22;11376;50.932;4.442;2022-09-11T03:22:03;16.10;99.90
22418;DHT22;11376;50.932;4.442;2022-09-11T03:24:28;16.10;99.90
22418;DHT22;11376;50.932;4.442;2022-09-11T03:26:54;16.00;99.90
22418;DHT22;11376;50.932;4.442;2022-09-11T03:29:20;16.00;99.90
22418;DHT22;11376;50.932;4.442;2022-09-11T03:31:45;16.00;99.90
22418;DHT22;11376;50.932;4.442;2022-09-11T03:34:11;16.10;99.90
22418;DHT22;11376;50.932;4.442;2022-09-11T03:36:37;16.10;99.90
22418;DHT22;11376;50.932;4.442;2022-09-11T03:39:04;16.10;99.90
22418;DHT22;11376;50.932;4.442;2022-09-11T03:41:30;16.20;99.90
22418;DHT22;11376;50.932;4.442;2022-09-11T03:43:55;16.20;99.90
22418;DHT22;11376;50.932;4.442;2022-09-11T03:46:22;16.30;99.90
22418;DHT22;11376;50.932;4.442;2022-09-11T03:48:48;16.30;99.90
22418;DHT22;11376;50.932;4.442;2022-09-11T03:51:14;16.30;99.90
22418;DHT22;11376;50.932;4.442;2022-09-11T03:53:42;16.30;99.90
22418;DHT22;11376;50.932;4.442;2022-09-11T03:56:08;16.40;99.90
22418;DHT22;11376;50.932;4.442;2022-09-11T03:58:34;16.30;99.90
22418;DHT22;11376;50.932;4.442;2022-09-11T04:01:00;16.30;99.90
22418;DHT22;11376;50.932;4.442;2022-09-11T04:03:25;16.30;99.90
22418;DHT22;11376;50.932;4.442;2022-09-11T04:05:56;16.20;99.90
22418;DHT22;11376;50.932;4.442;2022-09-11T04:08:22;16.20;99.90
22418;DHT22;11376;50.932;4.442;2022-09-11T04:10:48;16.20;99.90
22418;DHT22;11376;50.932;4.442;2022-09-11T04:13:13;16.20;99.90
22418;DHT22;11376;50.932;4.442;2022-09-11T04:15:40;16.30;99.90
22418;DHT22;11376;50.932;4.442;2022-09-11T04:18:07;16.20;99.90
22418;DHT22;11376;50.932;4.442;2022-09-11T04:20:32;16.20;99.90
22418;DHT22;11376;50.932;4.442;2022-09-11T04:22:58;16.20;99.90
22418;DHT22;11376;50.932;4.442;2022-09-11T04:25:24;16.20;99.90
22418;DHT22;11376;50.932;4.442;2022-09-11T04:27:49;16.20;99.90
22418;DHT22;11376;50.932;4.442;2022-09-11T04:30:15;16.20;99.90
22418;DHT22;11376;50.932;4.442;2022-09-11T04:32:40;16.20;99.90
22418;DHT22;11376;50.932;4.442;2022-09-11T04:35:06;16.20;99.90
22418;DHT22;11376;50.932;4.442;2022-09-11T04:37:32;16.20;99.90
22418;DHT22;11376;50.932;4.442;2022-09-11T04:39:59;16.20;99.90
22418;DHT22;11376;50.932;4.442;2022-09-11T04:42:25;16.10;99.90
22418;DHT22;11376;50.932;4.442;2022-09-11T04:44:51;16.00;99.90
22418;DHT22;11376;50.932;4.442;2022-09-11T04:47:16;16.00;99.90
22418;DHT22;11376;50.932;4.442;2022-09-11T04:49:42;15.90;99.90
22418;DHT22;11376;50.932;4.442;2022-09-11T04:52:11;15.90;99.90
22418;DHT22;11376;50.932;4.442;2022-09-11T04:54:36;15.90;99.90
22418;DHT22;11376;50.932;4.442;2022-09-11T04:57:02;15.90;99.90
22418;DHT22;11376;50.932;4.442;2022-09-11T04:59:28;15.90;99.90
22418;DHT22;11376;50.932;4.442;2022-09-11T05:01:54;15.90;99.90
22418;DHT22;11376;50.932;4.442;2022-09-11T05:04:20;16.00;99.90
22418;DHT22;11376;50.932;4.442;2022-09-11T05:06:46;16.00;99.90
22418;DHT22;11376;50.932;4.442;2022-09-11T05:09:16;16.10;99.90
22418;DHT22;11376;50.932;4.442;2022-09-11T05:11:42;16.20;99.90
22418;DHT22;11376;50.932;4.442;2022-09-11T05:14:07;16.20;99.90
22418;DHT22;11376;50.932;4.442;2022-09-11T05:16:34;16.40;99.90
22418;DHT22;11376;50.932;4.442;2022-09-11T05:19:01;16.40;99.90
22418;DHT22;11376;50.932;4.442;2022-09-11T05:21:29;16.40;99.90
22418;DHT22;11376;50.932;4.442;2022-09-11T05:23:56;16.40;99.90
22418;DHT22;11376;50.932;4.442;2022-09-11T05:26:24;16.30;99.90
22418;DHT22;11376;50.932;4.442;2022-09-11T05:28:58;16.20;99.90
22418;DHT22;11376;50.932;4.442;2022-09-11T05:31:24;16.20;99.90
22418;DHT22;11376;50.932;4.442;2022-09-11T05:33:50;16.20;99.90
22418;DHT22;11376;50.932;4.442;2022-09-11T05:36:16;16.20;99.90
22418;DHT22;11376;50.932;4.442;2022-09-11T05:38:43;16.20;99.90
22418;DHT22;11376;50.932;4.442;2022-09-11T05:41:10;16.20;99.90
22418;DHT22;11376;50.932;4.442;2022-09-11T05:43:38;16.30;99.90
22418;DHT22;11376;50.932;4.442;2022-09-11T05:46:05;16.50;99.90
22418;DHT22;11376;50.932;4.442;2022-09-11T05:48:32;16.50;99.90
22418;DHT22;11376;50.932;4.442;2022-09-11T05:51:00;16.50;99.90
22418;DHT22;11376;50.932;4.442;2022-09-11T05:53:27;16.60;99.90
22418;DHT22;11376;50.932;4.442;2022-09-11T05:55:53;16.60;99.90
22418;DHT22;11376;50.932;4.442;2022-09-11T05:58:20;16.70;99.90
22418;DHT22;11376;50.932;4.442;2022-09-11T06:00:46;16.80;99.90
22418;DHT22;11376;50.932;4.442;2022-09-11T06:03:16;16.80;99.90
22418;DHT22;11376;50.932;4.442;2022-09-11T06:05:43;16.80;99.90
22418;DHT22;11376;50.932;4.442;2022-09-11T06:08:09;16.70;99.90
22418;DHT22;11376;50.932;4.442;2022-09-11T06:10:36;16.70;99.90
22418;DHT22;11376;50.932;4.442;2022-09-11T06:13:01;16.70;99.90
22418;DHT22;11376;50.932;4.442;2022-09-11T06:15:28;16.60;99.90
22418;DHT22;11376;50.932;4.442;2022-09-11T06:17:54;16.70;99.90
22418;DHT22;11376;50.932;4.442;2022-09-11T06:20:20;16.80;99.90
22418;DHT22;11376;50.932;4.442;2022-09-11T06:22:46;16.90;99.90
22418;DHT22;11376;50.932;4.442;2022-09-11T06:25:11;16.90;99.90
22418;DHT22;11376;50.932;4.442;2022-09-11T06:27:37;17.10;99.90
22418;DHT22;11376;50.932;4.442;2022-09-11T06:30:03;17.20;99.90
22418;DHT22;11376;50.932;4.442;2022-09-11T06:32:29;17.10;99.90
22418;DHT22;11376;50.932;4.442;2022-09-11T06:34:54;17.10;99.90
22418;DHT22;11376;50.932;4.442;2022-09-11T06:37:20;17.00;99.90
22418;DHT22;11376;50.932;4.442;2022-09-11T06:39:45;17.20;99.90
22418;DHT22;11376;50.932;4.442;2022-09-11T06:42:11;17.20;99.90
22418;DHT22;11376;50.932;4.442;2022-09-11T06:44:36;17.40;99.90
22418;DHT22;11376;50.932;4.442;2022-09-11T06:47:02;17.50;99.90
22418;DHT22;11376;50.932;4.442;2022-09-11T06:49:28;17.50;99.90
22418;DHT22;11376;50.932;4.442;2022-09-11T06:51:54;17.50;99.90
22418;DHT22;11376;50.932;4.442;2022-09-11T06:54:19;17.60;99.90
22418;DHT22;11376;50.932;4.442;2022-09-11T06:56:45;17.70;99.90
22418;DHT22;11376;50.932;4.442;2022-09-11T06:59:11;17.70;99.90
22418;DHT22;11376;50.932;4.442;2022-09-11T07:01:36;17.80;99.90
22418;DHT22;11376;50.932;4.442;2022-09-11T07:04:04;17.90;99.90
22418;DHT22;11376;50.932;4.442;2022-09-11T07:06:29;18.10;99.90
22418;DHT22;11376;50.932;4.442;2022-09-11T07:08:57;18.30;99.90
22418;DHT22;11376;50.932;4.442;2022-09-11T07:11:31;18.50;99.90
22418;DHT22;11376;50.932;4.442;2022-09-11T07:13:58;18.60;99.90
22418;DHT22;11376;50.932;4.442;2022-09-11T07:16:25;18.70;99.90
22418;DHT22;11376;50.932;4.442;2022-09-11T07:18:50;18.90;99.90
22418;DHT22;11376;50.932;4.442;2022-09-11T07:21:18;18.80;99.90
22418;DHT22;11376;50.932;4.442;2022-09-11T07:23:50;18.80;99.90
22418;DHT22;11376;50.932;4.442;2022-09-11T07:26:16;18.90;99.90
22418;DHT22;11376;50.932;4.442;2022-09-11T07:28:42;19.00;99.90
22418;DHT22;11376;50.932;4.442;2022-09-11T07:31:19;18.90;99.90
22418;DHT22;11376;50.932;4.442;2022-09-11T07:33:47;19.00;99.90
22418;DHT22;11376;50.932;4.442;2022-09-11T07:36:18;19.10;99.90
22418;DHT22;11376;50.932;4.442;2022-09-11T07:38:45;19.30;99.90
22418;DHT22;11376;50.932;4.442;2022-09-11T07:41:12;19.40;99.90
22418;DHT22;11376;50.932;4.442;2022-09-11T07:43:40;19.50;99.90
22418;DHT22;11376;50.932;4.442;2022-09-11T07:46:08;19.60;99.90
22418;DHT22;11376;50.932;4.442;2022-09-11T07:48:34;19.70;99.90
22418;DHT22;11376;50.932;4.442;2022-09-11T07:51:02;19.80;99.90
22418;DHT22;11376;50.932;4.442;2022-09-11T07:53:56;20.00;99.90
22418;DHT22;11376;50.932;4.442;2022-09-11T07:56:23;20.00;99.90
22418;DHT22;11376;50.932;4.442;2022-09-11T07:58:50;20.20;99.90
22418;DHT22;11376;50.932;4.442;2022-09-11T08:01:22;20.30;99.90
22418;DHT22;11376;50.932;4.442;2022-09-11T08:03:53;20.40;99.90
22418;DHT22;11376;50.932;4.442;2022-09-11T08:06:20;20.50;99.90
22418;DHT22;11376;50.932;4.442;2022-09-11T08:08:50;20.70;99.90
22418;DHT22;11376;50.932;4.442;2022-09-11T08:11:16;20.90;99.90
22418;DHT22;11376;50.932;4.442;2022-09-11T08:13:45;21.10;99.90
22418;DHT22;11376;50.932;4.442;2022-09-11T08:16:11;21.30;99.90
22418;DHT22;11376;50.932;4.442;2022-09-11T08:18:37;21.50;99.90
22418;DHT22;11376;50.932;4.442;2022-09-11T08:21:07;21.60;99.90
22418;DHT22;11376;50.932;4.442;2022-09-11T08:23:38;21.70;99.90
22418;DHT22;11376;50.932;4.442;2022-09-11T08:26:15;21.70;99.90
22418;DHT22;11376;50.932;4.442;2022-09-11T08:28:42;21.80;99.90
22418;DHT22;11376;50.932;4.442;2022-09-11T08:31:09;22.10;99.90
22418;DHT22;11376;50.932;4.442;2022-09-11T08:33:35;22.30;99.90
22418;DHT22;11376;50.932;4.442;2022-09-11T08:36:04;22.40;99.90
22418;DHT22;11376;50.932;4.442;2022-09-11T08:38:30;22.40;99.90
22418;DHT22;11376;50.932;4.442;2022-09-11T08:40:57;22.50;99.90
22418;DHT22;11376;50.932;4.442;2022-09-11T08:43:30;22.60;99.90
22418;DHT22;11376;50.932;4.442;2022-09-11T08:46:00;22.70;99.90
22418;DHT22;11376;50.932;4.442;2022-09-11T08:48:34;22.80;99.90
22418;DHT22;11376;50.932;4.442;2022-09-11T08:51:04;23.00;99.90
22418;DHT22;11376;50.932;4.442;2022-09-11T08:53:31;23.20;99.90
22418;DHT22;11376;50.932;4.442;2022-09-11T08:56:06;23.20;99.90
22418;DHT22;11376;50.932;4.442;2022-09-11T08:59:02;23.10;99.90
22418;DHT22;11376;50.932;4.442;2022-09-11T09:16:07;23.60;99.90
22418;DHT22;11376;50.932;4.442;2022-09-11T09:18:44;24.00;99.90
22418;DHT22;11376;50.932;4.442;2022-09-11T09:21:15;24.20;99.90
22418;DHT22;11376;50.932;4.442;2022-09-11T09:23:50;24.50;99.90
22418;DHT22;11376;50.932;4.442;2022-09-11T09:26:17;24.60;99.90
22418;DHT22;11376;50.932;4.442;2022-09-11T09:28:48;24.80;99.90
22418;DHT22;11376;50.932;4.442;2022-09-11T09:31:20;24.80;99.90
22418;DHT22;11376;50.932;4.442;2022-09-11T09:34:00;24.80;99.90
22418;DHT22;11376;50.932;4.442;2022-09-11T09:39:29;25.00;99.90
22418;DHT22;11376;50.932;4.442;2022-09-11T09:47:09;26.00;99.90
22418;DHT22;11376;50.932;4.442;2022-09-11T09:49:36;26.40;99.90
22418;DHT22;11376;50.932;4.442;2022-09-11T09:52:30;26.70;99.90
22418;DHT22;11376;50.932;4.442;2022-09-11T09:55:05;27.00;99.90
22418;DHT22;11376;50.932;4.442;2022-09-11T09:57:33;27.10;99.90
22418;DHT22;11376;50.932;4.442;2022-09-11T10:00:13;27.10;99.90
22418;DHT22;11376;50.932;4.442;2022-09-11T10:02:52;27.10;99.90
22418;DHT22;11376;50.932;4.442;2022-09-11T10:07:57;26.90;99.90
22418;DHT22;11376;50.932;4.442;2022-09-11T10:10:38;26.60;99.90
22418;DHT22;11376;50.932;4.442;2022-09-11T10:13:19;26.50;99.90
22418;DHT22;11376;50.932;4.442;2022-09-11T10:15:52;26.40;99.90
22418;DHT22;11376;50.932;4.442;2022-09-11T10:18:23;26.40;99.90
22418;DHT22;11376;50.932;4.442;2022-09-11T10:26:37;26.30;99.90
22418;DHT22;11376;50.932;4.442;2022-09-11T10:31:41;26.40;99.90
22418;DHT22;11376;50.932;4.442;2022-09-11T10:34:17;26.70;99.90
22418;DHT22;11376;50.932;4.442;2022-09-11T10:36:59;26.80;99.90
22418;DHT22;11376;50.932;4.442;2022-09-11T10:39:28;26.80;99.90
22418;DHT22;11376;50.932;4.442;2022-09-11T10:41:56;27.00;99.90
22418;DHT22;11376;50.932;4.442;2022-09-11T10:44:25;27.00;99.90
22418;DHT22;11376;50.932;4.442;2022-09-11T10:49:48;27.00;99.90
22418;DHT22;11376;50.932;4.442;2022-09-11T10:57:35;26.90;99.90
22418;DHT22;11376;50.932;4.442;2022-09-11T11:00:26;26.70;99.90
22418;DHT22;11376;50.932;4.442;2022-09-11T11:02:58;26.70;99.90
22418;DHT22;11376;50.932;4.442;2022-09-11T11:09:08;26.90;99.90
22418;DHT22;11376;50.932;4.442;2022-09-11T11:20:29;26.80;99.90
22418;DHT22;11376;50.932;4.442;2022-09-11T11:32:08;27.30;99.90
22418;DHT22;11376;50.932;4.442;2022-09-11T11:35:07;27.60;99.90
22418;DHT22;11376;50.932;4.442;2022-09-11T11:37:40;27.70;99.90
22418;DHT22;11376;50.932;4.442;2022-09-11T11:40:28;28.30;99.90
22418;DHT22;11376;50.932;4.442;2022-09-11T11:43:11;30.40;99.90
22418;DHT22;11376;50.932;4.442;2022-09-11T11:45:46;30.90;99.90
22418;DHT22;11376;50.932;4.442;2022-09-11T11:48:21;31.20;99.90
22418;DHT22;11376;50.932;4.442;2022-09-11T11:50:52;33.40;99.90
22418;DHT22;11376;50.932;4.442;2022-09-11T11:53:24;33.60;97.40
22418;DHT22;11376;50.932;4.442;2022-09-11T11:56:06;32.90;96.60
22418;DHT22;11376;50.932;4.442;2022-09-11T11:58:41;32.80;96.70
22418;DHT22;11376;50.932;4.442;2022-09-11T12:01:31;36.00;92.30
22418;DHT22;11376;50.932;4.442;2022-09-11T12:06:44;43.90;57.40
22418;DHT22;11376;50.932;4.442;2022-09-11T12:09:09;46.70;47.40
22418;DHT22;11376;50.932;4.442;2022-09-11T12:11:35;48.50;40.10
22418;DHT22;11376;50.932;4.442;2022-09-11T12:14:02;47.90;38.30
22418;DHT22;11376;50.932;4.442;2022-09-11T12:16:31;45.60;38.80
22418;DHT22;11376;50.932;4.442;2022-09-11T12:19:25;43.10;40.40
22418;DHT22;11376;50.932;4.442;2022-09-11T12:30:07;41.50;42.50
22418;DHT22;11376;50.932;4.442;2022-09-11T12:38:09;41.10;43.10
22418;DHT22;11376;50.932;4.442;2022-09-11T12:40:56;39.20;44.50
22418;DHT22;11376;50.932;4.442;2022-09-11T12:48:55;35.20;52.00
22418;DHT22;11376;50.932;4.442;2022-09-11T12:51:29;37.60;49.90
22418;DHT22;11376;50.932;4.442;2022-09-11T12:53:59;40.60;45.80
22418;DHT22;11376;50.932;4.442;2022-09-11T12:56:28;43.20;41.30
22418;DHT22;11376;50.932;4.442;2022-09-11T12:59:00;45.10;39.40
22418;DHT22;11376;50.932;4.442;2022-09-11T13:01:31;46.80;36.50
22418;DHT22;11376;50.932;4.442;2022-09-11T13:10:02;49.20;32.20
22418;DHT22;11376;50.932;4.442;2022-09-11T13:12:53;49.50;31.60
22418;DHT22;11376;50.932;4.442;2022-09-11T13:15:39;50.10;31.30
22418;DHT22;11376;50.932;4.442;2022-09-11T13:21:00;49.60;30.60
22418;DHT22;11376;50.932;4.442;2022-09-11T13:23:28;49.50;29.70
22418;DHT22;11376;50.932;4.442;2022-09-11T13:25:55;49.40;29.50
22418;DHT22;11376;50.932;4.442;2022-09-11T13:28:23;48.60;30.00
22418;DHT22;11376;50.932;4.442;2022-09-11T13:30:59;47.20;30.40
22418;DHT22;11376;50.932;4.442;2022-09-11T13:33:27;45.50;31.70
22418;DHT22;11376;50.932;4.442;2022-09-11T13:35:56;44.50;33.20
22418;DHT22;11376;50.932;4.442;2022-09-11T13:38:27;43.50;32.80
22418;DHT22;11376;50.932;4.442;2022-09-11T13:43:49;41.20;34.80
22418;DHT22;11376;50.932;4.442;2022-09-11T13:48:42;41.20;35.50
22418;DHT22;11376;50.932;4.442;2022-09-11T13:51:15;41.50;35.20
22418;DHT22;11376;50.932;4.442;2022-09-11T13:53:43;42.00;34.50
22418;DHT22;11376;50.932;4.442;2022-09-11T13:56:19;42.60;34.10
22418;DHT22;11376;50.932;4.442;2022-09-11T13:58:59;43.30;33.60
22418;DHT22;11376;50.932;4.442;2022-09-11T14:01:25;44.00;32.60
22418;DHT22;11376;50.932;4.442;2022-09-11T14:03:50;44.40;31.70
22418;DHT22;11376;50.932;4.442;2022-09-11T14:06:17;44.90;31.90
22418;DHT22;11376;50.932;4.442;2022-09-11T14:08:53;45.30;31.00
22418;DHT22;11376;50.932;4.442;2022-09-11T14:11:38;45.70;31.20
22418;DHT22;11376;50.932;4.442;2022-09-11T14:14:10;45.80;31.10
22418;DHT22;11376;50.932;4.442;2022-09-11T14:16:42;45.90;30.90
22418;DHT22;11376;50.932;4.442;2022-09-11T14:19:20;45.90;30.40
22418;DHT22;11376;50.932;4.442;2022-09-11T14:21:48;46.00;29.90
22418;DHT22;11376;50.932;4.442;2022-09-11T14:26:52;45.40;30.00
22418;DHT22;11376;50.932;4.442;2022-09-11T14:29:33;45.40;30.40
22418;DHT22;11376;50.932;4.442;2022-09-11T14:32:32;45.20;30.60
22418;DHT22;11376;50.932;4.442;2022-09-11T14:35:04;44.70;30.70
22418;DHT22;11376;50.932;4.442;2022-09-11T14:37:32;44.30;30.60
22418;DHT22;11376;50.932;4.442;2022-09-11T14:40:02;43.80;31.10
22418;DHT22;11376;50.932;4.442;2022-09-11T14:42:32;43.00;31.90
22418;DHT22;11376;50.932;4.442;2022-09-11T14:45:06;41.50;33.10
22418;DHT22;11376;50.932;4.442;2022-09-11T14:47:32;40.20;34.60
22418;DHT22;11376;50.932;4.442;2022-09-11T14:49:57;39.30;35.70
22418;DHT22;11376;50.932;4.442;2022-09-11T14:52:28;38.50;36.40
22418;DHT22;11376;50.932;4.442;2022-09-11T14:54:54;37.80;37.20
22418;DHT22;11376;50.932;4.442;2022-09-11T14:57:27;36.90;37.40
22418;DHT22;11376;50.932;4.442;2022-09-11T14:59:54;36.00;38.30
22418;DHT22;11376;50.932;4.442;2022-09-11T15:02:23;35.20;39.80
22418;DHT22;11376;50.932;4.442;2022-09-11T15:04:50;34.50;41.00
22418;DHT22;11376;50.932;4.442;2022-09-11T15:07:17;33.70;42.00
22418;DHT22;11376;50.932;4.442;2022-09-11T15:09:48;33.10;42.90
22418;DHT22;11376;50.932;4.442;2022-09-11T15:12:14;32.50;44.30
22418;DHT22;11376;50.932;4.442;2022-09-11T15:14:41;31.90;45.50
22418;DHT22;11376;50.932;4.442;2022-09-11T15:17:15;31.40;46.60
22418;DHT22;11376;50.932;4.442;2022-09-11T15:19:41;30.90;47.60
22418;DHT22;11376;50.932;4.442;2022-09-11T15:22:10;30.50;48.20
22418;DHT22;11376;50.932;4.442;2022-09-11T15:24:36;30.10;48.90
22418;DHT22;11376;50.932;4.442;2022-09-11T15:27:02;29.80;49.70
22418;DHT22;11376;50.932;4.442;2022-09-11T15:29:28;29.60;50.00
22418;DHT22;11376;50.932;4.442;2022-09-11T15:31:54;29.40;50.50
22418;DHT22;11376;50.932;4.442;2022-09-11T15:34:21;29.30;51.10
22418;DHT22;11376;50.932;4.442;2022-09-11T15:36:47;29.10;52.00
22418;DHT22;11376;50.932;4.442;2022-09-11T15:39:17;28.80;52.00
22418;DHT22;11376;50.932;4.442;2022-09-11T15:41:43;28.60;52.80
22418;DHT22;11376;50.932;4.442;2022-09-11T15:44:11;28.40;53.10
22418;DHT22;11376;50.932;4.442;2022-09-11T15:46:37;28.30;53.70
22418;DHT22;11376;50.932;4.442;2022-09-11T15:49:02;28.20;54.50
22418;DHT22;11376;50.932;4.442;2022-09-11T15:51:28;28.10;55.60
22418;DHT22;11376;50.932;4.442;2022-09-11T15:53:58;28.00;56.70
22418;DHT22;11376;50.932;4.442;2022-09-11T15:56:24;27.90;57.40
22418;DHT22;11376;50.932;4.442;2022-09-11T15:58:49;27.80;57.40
22418;DHT22;11376;50.932;4.442;2022-09-11T16:01:26;27.80;58.00
22418;DHT22;11376;50.932;4.442;2022-09-11T16:03:53;27.70;58.50
22418;DHT22;11376;50.932;4.442;2022-09-11T16:06:20;27.60;58.90
22418;DHT22;11376;50.932;4.442;2022-09-11T16:08:46;27.50;59.60
22418;DHT22;11376;50.932;4.442;2022-09-11T16:11:13;27.50;59.70
22418;DHT22;11376;50.932;4.442;2022-09-11T16:13:40;27.30;60.30
22418;DHT22;11376;50.932;4.442;2022-09-11T16:16:06;27.30;60.50
22418;DHT22;11376;50.932;4.442;2022-09-11T16:18:36;27.10;60.90
22418;DHT22;11376;50.932;4.442;2022-09-11T16:21:03;27.10;61.90
22418;DHT22;11376;50.932;4.442;2022-09-11T16:23:29;27.20;62.80
22418;DHT22;11376;50.932;4.442;2022-09-11T16:25:55;27.40;62.90
22418;DHT22;11376;50.932;4.442;2022-09-11T16:28:21;27.80;62.60
22418;DHT22;11376;50.932;4.442;2022-09-11T16:30:52;28.20;61.10
22418;DHT22;11376;50.932;4.442;2022-09-11T16:33:18;28.40;60.20
22418;DHT22;11376;50.932;4.442;2022-09-11T16:35:43;28.30;60.00
22418;DHT22;11376;50.932;4.442;2022-09-11T16:38:09;28.10;60.30
22418;DHT22;11376;50.932;4.442;2022-09-11T16:40:36;27.80;60.60
22418;DHT22;11376;50.932;4.442;2022-09-11T16:43:02;27.60;61.50
22418;DHT22;11376;50.932;4.442;2022-09-11T16:45:29;27.30;62.40
22418;DHT22;11376;50.932;4.442;2022-09-11T16:47:58;27.10;63.20
22418;DHT22;11376;50.932;4.442;2022-09-11T16:50:24;26.90;64.00
22418;DHT22;11376;50.932;4.442;2022-09-11T16:52:50;26.80;65.30
22418;DHT22;11376;50.932;4.442;2022-09-11T16:55:15;26.50;66.40
22418;DHT22;11376;50.932;4.442;2022-09-11T16:57:41;26.40;67.50
22418;DHT22;11376;50.932;4.442;2022-09-11T17:00:09;26.20;68.70
22418;DHT22;11376;50.932;4.442;2022-09-11T17:02:35;26.10;69.80
22418;DHT22;11376;50.932;4.442;2022-09-11T17:05:03;25.90;70.80
22418;DHT22;11376;50.932;4.442;2022-09-11T17:07:29;25.80;72.00
22418;DHT22;11376;50.932;4.442;2022-09-11T17:09:54;25.60;72.80
22418;DHT22;11376;50.932;4.442;2022-09-11T17:12:20;25.50;73.60
22418;DHT22;11376;50.932;4.442;2022-09-11T17:14:46;25.30;75.20
22418;DHT22;11376;50.932;4.442;2022-09-11T17:17:12;25.20;76.40
22418;DHT22;11376;50.932;4.442;2022-09-11T17:19:38;25.10;77.70
22418;DHT22;11376;50.932;4.442;2022-09-11T17:22:03;25.00;79.30
22418;DHT22;11376;50.932;4.442;2022-09-11T17:24:29;24.80;80.70
22418;DHT22;11376;50.932;4.442;2022-09-11T17:26:56;24.80;82.00
22418;DHT22;11376;50.932;4.442;2022-09-11T17:29:22;24.70;83.40
22418;DHT22;11376;50.932;4.442;2022-09-11T17:31:47;24.50;84.80
22418;DHT22;11376;50.932;4.442;2022-09-11T17:34:13;24.50;87.00
22418;DHT22;11376;50.932;4.442;2022-09-11T17:36:39;24.40;88.80
22418;DHT22;11376;50.932;4.442;2022-09-11T17:39:04;24.30;90.30
22418;DHT22;11376;50.932;4.442;2022-09-11T17:41:30;24.10;91.10
22418;DHT22;11376;50.932;4.442;2022-09-11T17:43:56;24.00;91.80
22418;DHT22;11376;50.932;4.442;2022-09-11T17:46:22;23.90;92.70